Time;durP1;ratioP1;P1;durP2;ratioP2;P2;SDS_P1;SDS_P2;PMS_P1;PMS_P2;Temp;Humidity;BMP_temperature;BMP_pressure;BME280_temperature;BME280_humidity;BME280_pressure;Samples;Min_cycle;Max_cycle;Signal;HPM_P1;HPM_P2
2023/05/26 00:00:22;;;;;;;16.73;4.38;;;7.40;99.90;;;;;;5103634;28;20509;-81
2023/05/26 00:02:50;;;;;;;17.40;5.35;;;7.30;99.90;;;;;;5084311;28;20048;-81
2023/05/26 00:05:20;;;;;;;16.02;4.25;;;8.10;99.90;;;;;;5082180;28;20070;-82
2023/05/26 00:07:47;;;;;;;13.85;5.13;;;7.00;99.90;;;;;;5091317;28;20040;-81
2023/05/26 00:10:12;;;;;;;14.48;4.22;;;7.30;99.90;;;;;;5074988;28;20051;-81
2023/05/26 00:12:38;;;;;;;18.98;4.32;;;7.20;99.90;;;;;;5091202;28;20052;-81
2023/05/26 00:15:05;;;;;;;15.10;4.97;;;7.20;99.90;;;;;;5109728;28;20131;-81
2023/05/26 00:17:31;;;;;;;13.75;3.95;;;7.20;99.90;;;;;;5096960;28;20032;-81
2023/05/26 00:19:59;;;;;;;14.52;4.28;;;7.10;99.90;;;;;;5077987;28;20457;-81
2023/05/26 00:22:26;;;;;;;15.25;3.97;;;7.10;99.90;;;;;;5081114;28;20101;-82
2023/05/26 00:24:52;;;;;;;13.93;4.47;;;7.10;99.90;;;;;;5089615;28;20507;-81
2023/05/26 00:27:18;;;;;;;16.30;4.38;;;7.10;99.90;;;;;;5096289;28;20048;-81
2023/05/26 00:29:44;;;;;;;19.63;4.35;;;7.00;99.90;;;;;;5086094;28;20080;-81
2023/05/26 00:32:10;;;;;;;12.40;3.30;;;7.00;99.90;;;;;;5080610;28;20121;-82
2023/05/26 00:34:37;;;;;;;15.02;4.50;;;6.90;99.90;;;;;;5101200;28;20056;-81
2023/05/26 00:37:05;;;;;;;19.25;4.53;;;6.90;99.90;;;;;;5081426;28;20114;-81
2023/05/26 00:39:31;;;;;;;17.27;4.80;;;6.90;99.90;;;;;;5058546;28;20514;-82
2023/05/26 00:41:57;;;;;;;18.27;4.38;;;6.90;99.90;;;;;;5094133;28;20052;-81
2023/05/26 00:44:23;;;;;;;14.32;4.13;;;6.80;99.90;;;;;;5088313;28;20041;-81
2023/05/26 00:46:49;;;;;;;16.27;4.15;;;6.90;99.90;;;;;;5076418;28;20041;-81
2023/05/26 00:49:15;;;;;;;15.65;4.22;;;7.50;99.90;;;;;;5099964;28;20503;-81
2023/05/26 00:51:44;;;;;;;13.52;4.28;;;6.70;99.90;;;;;;5112412;28;20044;-81
2023/05/26 00:54:10;;;;;;;16.75;4.00;;;6.70;99.90;;;;;;5090715;28;20716;-81
2023/05/26 00:56:37;;;;;;;13.00;3.97;;;6.70;99.90;;;;;;5057942;28;20050;-81
2023/05/26 00:59:03;;;;;;;18.70;3.67;;;6.70;99.90;;;;;;5106535;28;20056;-81
2023/05/26 01:01:30;;;;;;;19.08;4.18;;;6.70;99.90;;;;;;5057322;28;20075;-82
2023/05/26 01:03:57;;;;;;;21.77;5.00;;;6.70;99.90;;;;;;5091197;28;20079;-82
2023/05/26 01:06:22;;;;;;;14.20;4.07;;;6.60;99.90;;;;;;5082693;28;20385;-82
2023/05/26 01:08:48;;;;;;;11.82;4.00;;;6.60;99.90;;;;;;5096818;28;20070;-81
2023/05/26 01:11:34;;;;;;;12.23;4.70;;;6.60;99.90;;;;;;5087392;28;20079;-82
2023/05/26 01:14:39;;;;;;;12.02;3.83;;;6.60;99.90;;;;;;5071179;28;20052;-82
2023/05/26 01:17:17;;;;;;;18.77;4.68;;;6.60;99.90;;;;;;5064813;28;20057;-82
2023/05/26 01:20:17;;;;;;;16.38;5.00;;;6.50;99.90;;;;;;5080082;28;20081;-82
2023/05/26 01:23:15;;;;;;;14.18;3.88;;;6.50;99.90;;;;;;5085920;28;20491;-82
2023/05/26 01:26:11;;;;;;;19.67;5.00;;;6.50;99.90;;;;;;5042489;28;20887;-82
2023/05/26 01:28:40;;;;;;;20.05;4.55;;;6.40;99.90;;;;;;5086014;28;20063;-82
2023/05/26 01:31:06;;;;;;;16.20;4.63;;;6.40;99.90;;;;;;5082948;28;20072;-82
2023/05/26 01:33:33;;;;;;;17.65;4.57;;;6.40;99.90;;;;;;5101160;28;20514;-81
2023/05/26 01:35:59;;;;;;;14.15;3.80;;;6.40;99.90;;;;;;5075609;28;20059;-82
2023/05/26 01:38:25;;;;;;;17.58;4.15;;;6.40;99.90;;;;;;5083272;28;20036;-81
2023/05/26 01:40:59;;;;;;;11.82;3.67;;;6.30;99.90;;;;;;5088439;28;20113;-82
2023/05/26 01:43:56;;;;;;;14.75;4.05;;;6.70;99.90;;;;;;5089245;28;20445;-82
2023/05/26 01:46:49;;;;;;;14.27;3.83;;;6.30;99.90;;;;;;5061115;28;20544;-82
2023/05/26 01:49:16;;;;;;;15.52;5.38;;;6.30;99.90;;;;;;5089993;28;20051;-81
2023/05/26 01:51:56;;;;;;;14.90;4.30;;;6.30;99.90;;;;;;5087823;28;20484;-81
2023/05/26 01:54:24;;;;;;;15.45;4.88;;;6.30;99.90;;;;;;5089217;28;20098;-81
2023/05/26 01:56:53;;;;;;;16.88;4.75;;;6.20;99.90;;;;;;5078767;28;20052;-82
2023/05/26 01:59:20;;;;;;;18.80;5.07;;;6.70;99.90;;;;;;5088141;28;20185;-81
2023/05/26 02:01:47;;;;;;;15.60;4.65;;;6.20;99.90;;;;;;5080400;28;20041;-82
2023/05/26 02:04:12;;;;;;;15.60;4.40;;;6.50;99.90;;;;;;5079945;28;20125;-82
2023/05/26 02:06:39;;;;;;;19.02;4.85;;;6.20;99.90;;;;;;5082315;28;20169;-82
2023/05/26 02:09:05;;;;;;;14.93;5.10;;;6.10;99.90;;;;;;5077081;28;20388;-82
2023/05/26 02:11:32;;;;;;;13.63;4.28;;;6.10;99.90;;;;;;5071783;28;20048;-82
2023/05/26 02:13:58;;;;;;;19.63;5.00;;;6.20;99.90;;;;;;5074145;28;20036;-82
2023/05/26 02:16:24;;;;;;;19.38;4.95;;;6.10;99.90;;;;;;5109238;28;20405;-81
2023/05/26 02:18:50;;;;;;;17.38;4.60;;;6.10;99.90;;;;;;5074937;28;20464;-81
2023/05/26 02:21:16;;;;;;;15.90;4.47;;;6.10;99.90;;;;;;5086650;28;20040;-81
2023/05/26 02:23:45;;;;;;;24.50;4.80;;;6.00;99.90;;;;;;5077414;28;20156;-81
2023/05/26 02:26:11;;;;;;;16.70;4.18;;;6.00;99.90;;;;;;5068531;28;20056;-81
2023/05/26 02:28:40;;;;;;;17.20;4.65;;;6.00;99.90;;;;;;5082440;28;20495;-82
2023/05/26 02:31:06;;;;;;;16.63;3.67;;;6.00;99.90;;;;;;5084572;28;20533;-81
2023/05/26 02:33:32;;;;;;;21.13;4.85;;;5.90;99.90;;;;;;5069713;28;20040;-81
2023/05/26 02:35:57;;;;;;;13.23;4.32;;;5.90;99.90;;;;;;5053527;28;20067;-82
2023/05/26 02:38:23;;;;;;;17.08;4.53;;;5.90;99.90;;;;;;5081676;28;20055;-82
2023/05/26 02:40:49;;;;;;;14.73;4.45;;;5.80;99.90;;;;;;5069539;28;20053;-82
2023/05/26 02:43:16;;;;;;;14.95;4.30;;;5.80;99.90;;;;;;5059701;28;20092;-81
2023/05/26 02:45:43;;;;;;;15.85;4.13;;;5.80;99.90;;;;;;5094249;28;20052;-81
2023/05/26 02:48:08;;;;;;;11.90;4.40;;;5.80;99.90;;;;;;5079848;28;20051;-82
2023/05/26 02:50:34;;;;;;;17.15;4.30;;;5.70;99.90;;;;;;5087820;28;20048;-82
2023/05/26 02:53:00;;;;;;;17.75;4.55;;;5.70;99.90;;;;;;5087306;28;20423;-82
2023/05/26 02:55:25;;;;;;;19.48;5.70;;;5.70;99.90;;;;;;5087677;28;20079;-81
2023/05/26 02:57:51;;;;;;;14.85;4.78;;;5.70;99.90;;;;;;5085802;28;20050;-81
2023/05/26 03:00:18;;;;;;;20.40;4.70;;;6.20;99.90;;;;;;5097270;28;20047;-82
2023/05/26 03:02:44;;;;;;;13.10;4.13;;;5.70;99.90;;;;;;5069623;28;20040;-82
2023/05/26 03:05:10;;;;;;;17.80;4.55;;;5.70;99.90;;;;;;5088323;28;20098;-82
2023/05/26 03:07:35;;;;;;;15.32;4.53;;;5.70;99.90;;;;;;5085941;28;20119;-82
2023/05/26 03:10:01;;;;;;;12.55;4.18;;;5.70;99.90;;;;;;5067933;28;20041;-82
2023/05/26 03:12:27;;;;;;;19.25;5.07;;;5.60;99.90;;;;;;5078351;28;20896;-82
2023/05/26 03:14:54;;;;;;;12.05;4.63;;;5.60;99.90;;;;;;5106801;28;20036;-82
2023/05/26 03:17:19;;;;;;;20.15;4.82;;;5.60;99.90;;;;;;5088489;28;20050;-82
2023/05/26 03:19:45;;;;;;;18.60;4.43;;;5.60;99.90;;;;;;5074038;28;20123;-82
2023/05/26 03:22:11;;;;;;;11.73;4.50;;;5.60;99.90;;;;;;5056260;28;20055;-82
2023/05/26 03:24:37;;;;;;;13.73;4.75;;;5.60;99.90;;;;;;5079815;28;20048;-82
2023/05/26 03:27:03;;;;;;;12.40;3.85;;;6.20;99.90;;;;;;5055106;28;20060;-82
2023/05/26 03:29:30;;;;;;;18.73;4.90;;;5.60;99.90;;;;;;5074659;28;20050;-82
2023/05/26 03:31:56;;;;;;;19.08;5.40;;;5.70;99.90;;;;;;5085471;28;20051;-82
2023/05/26 03:34:23;;;;;;;16.63;4.90;;;5.70;99.90;;;;;;5086508;28;20135;-82
2023/05/26 03:36:49;;;;;;;17.58;4.45;;;5.70;99.90;;;;;;5090572;28;20547;-81
2023/05/26 03:39:16;;;;;;;20.63;5.60;;;5.70;99.90;;;;;;5093081;28;20040;-82
2023/05/26 03:41:41;;;;;;;14.93;4.60;;;5.80;99.90;;;;;;5090201;28;20040;-81
2023/05/26 03:44:08;;;;;;;15.43;4.65;;;5.80;99.90;;;;;;5061355;28;20044;-82
2023/05/26 03:46:33;;;;;;;16.90;5.05;;;5.80;99.90;;;;;;5062282;28;20044;-82
2023/05/26 03:49:00;;;;;;;17.05;4.70;;;5.90;99.90;;;;;;5068239;28;20051;-82
2023/05/26 03:51:26;;;;;;;16.77;5.22;;;5.90;99.90;;;;;;5067075;28;20050;-83
2023/05/26 03:53:52;;;;;;;20.20;6.10;;;6.60;99.90;;;;;;5055871;28;20123;-82
2023/05/26 03:56:18;;;;;;;16.38;4.55;;;5.90;99.90;;;;;;5085741;28;20036;-82
2023/05/26 03:58:44;;;;;;;19.92;5.05;;;5.90;99.90;;;;;;5086782;28;20075;-80
2023/05/26 04:01:13;;;;;;;20.85;4.75;;;6.00;99.90;;;;;;5056999;28;20062;-80
2023/05/26 04:03:38;;;;;;;14.70;5.05;;;6.10;99.90;;;;;;5073448;28;20036;-80
2023/05/26 04:06:05;;;;;;;12.60;4.43;;;6.10;99.90;;;;;;5056651;28;20119;-80
2023/05/26 04:08:30;;;;;;;13.85;4.70;;;6.10;99.90;;;;;;5087706;28;20048;-80
2023/05/26 04:10:56;;;;;;;15.35;4.68;;;6.20;99.90;;;;;;5071126;28;20041;-81
2023/05/26 04:13:22;;;;;;;21.95;5.75;;;6.30;99.90;;;;;;5105226;28;20050;-80
2023/05/26 04:15:48;;;;;;;12.02;3.97;;;6.30;99.90;;;;;;5080841;28;20493;-80
2023/05/26 04:18:14;;;;;;;18.35;5.15;;;6.40;99.90;;;;;;5071220;28;20044;-80
2023/05/26 04:20:39;;;;;;;13.55;4.35;;;6.40;99.90;;;;;;5093765;28;20048;-80
2023/05/26 04:23:05;;;;;;;11.15;4.75;;;6.50;99.90;;;;;;5072413;28;20511;-81
2023/05/26 04:25:30;;;;;;;18.48;4.63;;;6.60;99.90;;;;;;5093868;28;20066;-81
2023/05/26 04:27:58;;;;;;;14.35;4.28;;;6.60;99.90;;;;;;5067061;28;20127;-80
2023/05/26 04:30:24;;;;;;;16.48;4.85;;;6.60;99.90;;;;;;5072692;28;20055;-81
2023/05/26 04:32:50;;;;;;;17.77;4.97;;;6.70;99.90;;;;;;5075934;28;20040;-81
2023/05/26 04:35:15;;;;;;;16.42;4.68;;;6.70;99.90;;;;;;5091701;28;20114;-81
2023/05/26 04:37:42;;;;;;;17.00;4.45;;;6.80;99.90;;;;;;5091360;28;20818;-81
2023/05/26 04:40:09;;;;;;;17.52;5.88;;;6.80;99.90;;;;;;5084823;28;20052;-81
2023/05/26 04:42:38;;;;;;;11.05;4.60;;;7.00;99.90;;;;;;5077171;28;20064;-81
2023/05/26 04:45:05;;;;;;;21.40;4.47;;;7.10;99.90;;;;;;5095066;28;20047;-81
2023/05/26 04:47:32;;;;;;;19.80;5.15;;;7.30;99.90;;;;;;5091181;28;20127;-81
2023/05/26 04:50:02;;;;;;;15.95;4.35;;;8.10;99.90;;;;;;5064243;28;20836;-81
2023/05/26 04:52:28;;;;;;;18.00;5.13;;;7.50;99.90;;;;;;5100647;28;20048;-81
2023/05/26 04:54:54;;;;;;;19.85;5.28;;;7.50;99.90;;;;;;5101105;28;20047;-81
2023/05/26 04:57:20;;;;;;;18.67;5.25;;;7.60;99.90;;;;;;5071395;28;20037;-81
2023/05/26 04:59:46;;;;;;;18.00;4.35;;;7.70;99.90;;;;;;5075919;28;20096;-81
2023/05/26 05:02:12;;;;;;;19.70;4.88;;;7.80;99.90;;;;;;5083007;28;20060;-81
2023/05/26 05:04:43;;;;;;;18.05;5.38;;;7.90;99.90;;;;;;5087968;28;20054;-81
2023/05/26 05:07:09;;;;;;;18.92;4.70;;;8.00;99.90;;;;;;5090058;28;20040;-83
2023/05/26 05:09:35;;;;;;;17.25;4.35;;;8.10;99.90;;;;;;5057379;28;20826;-83
2023/05/26 05:12:01;;;;;;;15.23;4.38;;;8.20;99.90;;;;;;5069921;28;20040;-83
2023/05/26 05:14:27;;;;;;;17.08;4.38;;;8.30;99.90;;;;;;5088316;28;20469;-81
2023/05/26 05:16:54;;;;;;;15.68;5.47;;;8.40;99.90;;;;;;5087291;28;20121;-81
2023/05/26 05:19:19;;;;;;;21.50;4.93;;;8.50;99.90;;;;;;5074482;28;20053;-81
2023/05/26 05:21:45;;;;;;;17.20;4.68;;;8.70;99.90;;;;;;5088862;28;20040;-81
2023/05/26 05:24:10;;;;;;;19.33;5.40;;;8.80;99.90;;;;;;5087716;28;20048;-81
2023/05/26 05:26:37;;;;;;;15.18;4.28;;;9.10;99.90;;;;;;5052406;28;20560;-81
2023/05/26 05:29:03;;;;;;;24.17;5.47;;;9.10;99.90;;;;;;5063910;28;20057;-82
2023/05/26 05:31:29;;;;;;;17.25;4.80;;;9.20;99.90;;;;;;5068683;28;20097;-82
2023/05/26 05:33:54;;;;;;;19.95;4.60;;;9.40;99.90;;;;;;5067128;28;20453;-82
2023/05/26 05:36:20;;;;;;;17.00;4.47;;;9.70;99.90;;;;;;5090459;28;20066;-82
2023/05/26 05:38:45;;;;;;;18.27;5.20;;;10.70;99.90;;;;;;5084033;28;20519;-82
2023/05/26 05:41:11;;;;;;;17.40;3.60;;;11.70;99.90;;;;;;5089311;28;20044;-83
2023/05/26 05:43:37;;;;;;;16.80;3.95;;;12.40;99.90;;;;;;5081529;28;20047;-82
2023/05/26 05:46:03;;;;;;;20.13;4.30;;;13.00;99.90;;;;;;5090554;28;20044;-82
2023/05/26 05:48:29;;;;;;;17.35;4.38;;;14.20;99.90;;;;;;5072730;28;20055;-82
2023/05/26 05:50:55;;;;;;;17.30;5.00;;;13.90;99.90;;;;;;5089165;28;20045;-82
2023/05/26 05:53:20;;;;;;;22.92;5.57;;;14.20;99.90;;;;;;5081596;28;20048;-83
2023/05/26 05:55:47;;;;;;;26.35;4.70;;;14.50;99.90;;;;;;5086436;28;20578;-82
2023/05/26 05:58:14;;;;;;;14.77;4.57;;;15.00;99.90;;;;;;5053424;28;20055;-82
2023/05/26 06:00:40;;;;;;;22.73;5.63;;;15.30;99.90;;;;;;5053988;28;20048;-82
2023/05/26 06:03:06;;;;;;;20.90;4.88;;;15.20;99.90;;;;;;5088808;28;20396;-83
2023/05/26 06:05:32;;;;;;;19.20;4.82;;;15.60;99.90;;;;;;5099843;28;20135;-83
2023/05/26 06:07:57;;;;;;;13.85;4.65;;;15.80;99.90;;;;;;5107990;28;20039;-85
2023/05/26 06:10:23;;;;;;;14.50;4.60;;;16.20;99.90;;;;;;5107040;28;20064;-84
2023/05/26 06:12:48;;;;;;;18.77;4.65;;;16.00;99.90;;;;;;5090435;28;20047;-85
2023/05/26 06:15:14;;;;;;;17.40;4.80;;;16.60;99.90;;;;;;5107476;28;20337;-85
2023/05/26 06:17:43;;;;;;;16.33;4.97;;;16.60;96.20;;;;;;5079347;28;20048;-85
2023/05/26 06:20:09;;;;;;;15.40;4.68;;;16.50;93.90;;;;;;5086641;28;20039;-84
2023/05/26 06:22:36;;;;;;;19.20;5.07;;;16.90;93.70;;;;;;5096645;28;20048;-82
2023/05/26 06:25:03;;;;;;;11.55;3.72;;;16.50;92.60;;;;;;5086494;28;20055;-85
2023/05/26 06:27:29;;;;;;;19.30;4.55;;;16.70;91.70;;;;;;5070339;28;20047;-83
2023/05/26 06:29:55;;;;;;;16.75;4.60;;;16.90;92.40;;;;;;5088849;28;20419;-85
2023/05/26 06:32:20;;;;;;;14.63;4.25;;;16.20;93.70;;;;;;5087808;28;20128;-85
2023/05/26 06:34:47;;;;;;;16.20;4.70;;;15.70;94.80;;;;;;5087794;28;20079;-86
2023/05/26 06:37:13;;;;;;;16.85;4.47;;;15.20;96.90;;;;;;5075478;28;20039;-83
2023/05/26 06:39:38;;;;;;;18.42;3.90;;;14.20;97.90;;;;;;5069941;28;20039;-84
2023/05/26 06:42:05;;;;;;;18.85;5.03;;;14.70;99.10;;;;;;5068869;28;20040;-84
2023/05/26 06:44:33;;;;;;;18.70;4.55;;;13.80;99.90;;;;;;5085520;28;20075;-85
2023/05/26 06:47:00;;;;;;;15.85;4.22;;;13.10;99.90;;;;;;5080886;28;20094;-85
2023/05/26 06:49:26;;;;;;;17.30;4.43;;;13.10;99.90;;;;;;5067300;28;20827;-86
2023/05/26 06:51:51;;;;;;;15.63;4.25;;;13.10;99.90;;;;;;5067028;28;20131;-86
2023/05/26 06:54:17;;;;;;;15.77;4.93;;;13.10;99.90;;;;;;5067596;28;20455;-87
2023/05/26 06:56:43;;;;;;;19.85;4.38;;;13.30;99.90;;;;;;5070392;28;20400;-86
2023/05/26 06:59:08;;;;;;;17.98;4.30;;;13.50;99.90;;;;;;5106998;28;20047;-88
2023/05/26 07:01:34;;;;;;;20.40;4.53;;;13.70;99.90;;;;;;5108810;28;20042;-85
2023/05/26 07:04:00;;;;;;;12.52;3.83;;;14.00;99.90;;;;;;5090312;28;20043;-85
2023/05/26 07:06:28;;;;;;;16.27;4.25;;;15.20;99.90;;;;;;5090056;28;20050;-85
2023/05/26 07:08:54;;;;;;;10.77;3.88;;;13.60;98.40;;;;;;5109145;28;20043;-86
2023/05/26 07:11:19;;;;;;;13.57;3.85;;;14.40;98.00;;;;;;5107354;28;20588;-85
2023/05/26 07:13:46;;;;;;;18.33;4.10;;;14.30;97.30;;;;;;5106652;28;20039;-85
2023/05/26 07:16:11;;;;;;;13.63;3.90;;;14.30;97.00;;;;;;5107128;28;20058;-85
2023/05/26 07:18:37;;;;;;;16.55;4.07;;;15.20;96.80;;;;;;5105882;28;20043;-85
2023/05/26 07:21:02;;;;;;;17.63;3.85;;;13.80;95.70;;;;;;5104685;28;20059;-83
2023/05/26 07:23:28;;;;;;;14.27;4.60;;;14.50;95.40;;;;;;5105757;28;20043;-86
2023/05/26 07:25:54;;;;;;;15.93;4.63;;;14.50;95.30;;;;;;5105502;28;20049;-85
2023/05/26 07:28:20;;;;;;;12.82;3.53;;;14.40;95.00;;;;;;5105773;28;20081;-85
2023/05/26 07:30:45;;;;;;;11.48;3.55;;;14.30;94.40;;;;;;5088709;28;20498;-85
2023/05/26 07:33:12;;;;;;;13.95;3.58;;;14.20;93.90;;;;;;5088935;28;20572;-86
2023/05/26 07:35:37;;;;;;;11.65;4.30;;;14.20;93.50;;;;;;5088942;28;20146;-85
2023/05/26 07:38:03;;;;;;;16.98;4.38;;;14.10;93.00;;;;;;5072284;28;20538;-85
2023/05/26 07:40:34;;;;;;;16.73;4.50;;;14.10;92.70;;;;;;5070747;28;20040;-86
2023/05/26 07:43:00;;;;;;;14.18;4.28;;;14.20;92.80;;;;;;5084901;28;20059;-85
2023/05/26 07:45:25;;;;;;;14.57;3.95;;;14.40;92.50;;;;;;5068066;28;20040;-85
2023/05/26 07:47:51;;;;;;;14.57;4.22;;;14.50;92.00;;;;;;5085812;28;20075;-86
2023/05/26 07:50:17;;;;;;;11.13;3.70;;;14.60;91.70;;;;;;5086610;28;20051;-85
2023/05/26 07:52:42;;;;;;;15.57;5.13;;;14.70;91.20;;;;;;5099436;28;20085;-86
2023/05/26 07:55:08;;;;;;;15.25;5.50;;;14.80;90.30;;;;;;5089937;28;20078;-85
2023/05/26 07:57:33;;;;;;;12.15;4.57;;;15.10;90.00;;;;;;5086452;28;20036;-83
2023/05/26 07:59:59;;;;;;;12.82;4.90;;;14.90;89.70;;;;;;5086688;28;20056;-83
2023/05/26 08:02:25;;;;;;;14.85;4.95;;;15.20;89.30;;;;;;5069906;28;20341;-83
2023/05/26 08:04:50;;;;;;;14.57;5.45;;;15.50;88.80;;;;;;5086605;28;20080;-83
2023/05/26 08:07:16;;;;;;;15.50;5.70;;;15.40;87.20;;;;;;5085948;28;20044;-84
2023/05/26 08:09:42;;;;;;;14.10;6.80;;;15.50;86.80;;;;;;5092513;28;20766;-82
2023/05/26 08:12:08;;;;;;;17.63;5.57;;;15.60;85.70;;;;;;5106863;28;20043;-83
2023/05/26 08:14:33;;;;;;;15.98;5.38;;;15.70;85.80;;;;;;5089746;28;20097;-83
2023/05/26 08:16:59;;;;;;;16.23;5.45;;;15.70;85.00;;;;;;5089398;28;20040;-83
2023/05/26 08:19:25;;;;;;;9.98;3.65;;;15.80;84.10;;;;;;5106271;28;20126;-83
2023/05/26 08:21:50;;;;;;;10.52;3.47;;;15.80;82.60;;;;;;5106771;28;20047;-83
2023/05/26 08:24:16;;;;;;;12.50;3.15;;;15.80;81.80;;;;;;5110269;28;20044;-83
2023/05/26 08:26:42;;;;;;;11.45;3.75;;;15.80;81.40;;;;;;5110272;28;20573;-84
2023/05/26 08:29:09;;;;;;;9.60;3.45;;;16.10;81.40;;;;;;5093387;28;20185;-83
2023/05/26 08:31:35;;;;;;;13.43;3.15;;;16.00;80.20;;;;;;5110108;28;20044;-82
2023/05/26 08:34:01;;;;;;;13.30;3.38;;;16.50;79.30;;;;;;5093312;28;20054;-83
2023/05/26 08:36:26;;;;;;;11.52;3.10;;;16.20;78.70;;;;;;5110267;28;20058;-84
2023/05/26 08:38:52;;;;;;;12.77;3.45;;;16.10;78.50;;;;;;5109221;28;20051;-83
2023/05/26 08:41:20;;;;;;;13.18;3.22;;;16.10;77.60;;;;;;5093286;28;20182;-83
2023/05/26 08:43:49;;;;;;;10.38;2.97;;;16.20;77.20;;;;;;5093303;28;20044;-83
2023/05/26 08:46:15;;;;;;;11.35;3.15;;;16.20;76.70;;;;;;5110320;28;20061;-84
2023/05/26 08:48:42;;;;;;;11.25;3.25;;;16.50;75.80;;;;;;5108741;28;20047;-83
2023/05/26 08:51:08;;;;;;;11.23;2.92;;;16.10;74.70;;;;;;5069473;28;20408;-83
2023/05/26 08:53:35;;;;;;;12.27;3.40;;;16.00;74.30;;;;;;5069472;28;20048;-83
2023/05/26 08:56:02;;;;;;;9.82;2.83;;;16.10;74.50;;;;;;5068874;28;20141;-83
2023/05/26 08:58:29;;;;;;;9.45;2.85;;;16.00;73.20;;;;;;5052717;28;20580;-83
2023/05/26 09:00:58;;;;;;;9.57;2.67;;;15.90;73.40;;;;;;5052501;28;20091;-84
2023/05/26 09:03:23;;;;;;;8.70;3.17;;;16.20;72.90;;;;;;5052020;28;20051;-83
2023/05/26 09:05:49;;;;;;;8.48;2.72;;;16.00;72.90;;;;;;5069518;28;20037;-83
2023/05/26 09:08:16;;;;;;;8.48;2.88;;;16.00;72.40;;;;;;5068892;28;20051;-83
2023/05/26 09:10:41;;;;;;;8.10;2.88;;;16.00;71.80;;;;;;5069292;28;20056;-83
2023/05/26 09:13:09;;;;;;;8.88;2.92;;;16.10;72.10;;;;;;5101320;28;20494;-83
2023/05/26 09:15:37;;;;;;;10.38;3.10;;;16.20;71.70;;;;;;5109370;28;20047;-83
2023/05/26 09:18:11;;;;;;;11.38;2.95;;;16.20;70.80;;;;;;5109343;28;20132;-84
2023/05/26 09:20:41;;;;;;;11.57;3.05;;;16.10;70.10;;;;;;5068011;28;20070;-83
2023/05/26 09:23:07;;;;;;;9.27;3.35;;;16.10;70.40;;;;;;5068349;28;20072;-84
2023/05/26 09:25:37;;;;;;;9.02;2.60;;;16.30;70.80;;;;;;5068682;28;20161;-84
2023/05/26 09:28:05;;;;;;;7.75;2.88;;;16.50;69.80;;;;;;5051753;28;20041;-84
2023/05/26 09:30:42;;;;;;;9.27;2.80;;;16.60;69.80;;;;;;5068792;28;20105;-83
2023/05/26 09:33:19;;;;;;;8.18;2.60;;;16.80;69.10;;;;;;5072064;28;20044;-84
2023/05/26 09:35:49;;;;;;;11.65;3.63;;;16.80;68.60;;;;;;5088581;28;20036;-83
2023/05/26 09:38:18;;;;;;;10.80;3.30;;;16.90;68.40;;;;;;5088084;28;20036;-84
2023/05/26 09:40:49;;;;;;;12.50;2.97;;;16.90;68.30;;;;;;5088722;28;20105;-84
2023/05/26 09:43:19;;;;;;;11.15;2.95;;;17.00;67.60;;;;;;5085935;28;20047;-83
2023/05/26 09:45:44;;;;;;;8.43;2.75;;;16.90;67.00;;;;;;5085680;28;20041;-82
2023/05/26 09:48:10;;;;;;;8.45;3.20;;;17.00;67.20;;;;;;5069707;28;20040;-84
2023/05/26 09:50:37;;;;;;;8.90;2.88;;;17.20;67.90;;;;;;5053008;28;20459;-83
2023/05/26 09:53:09;;;;;;;10.88;2.45;;;17.20;66.90;;;;;;5068319;28;20036;-83
2023/05/26 09:55:38;;;;;;;7.15;2.80;;;17.30;66.40;;;;;;5052567;28;20059;-84
2023/05/26 09:58:06;;;;;;;10.32;3.42;;;17.30;66.20;;;;;;5076469;28;20036;-85
2023/05/26 10:00:36;;;;;;;14.95;3.00;;;17.50;66.00;;;;;;5068465;28;20044;-84
2023/05/26 10:03:05;;;;;;;9.93;3.15;;;17.60;65.20;;;;;;5069839;28;20497;-83
2023/05/26 10:05:44;;;;;;;9.25;2.70;;;17.60;64.80;;;;;;5053881;28;20049;-83
2023/05/26 10:08:11;;;;;;;7.85;2.58;;;17.70;64.20;;;;;;5067695;28;20045;-84
2023/05/26 10:10:38;;;;;;;9.15;2.60;;;17.70;64.50;;;;;;5051358;28;20504;-84
2023/05/26 10:13:06;;;;;;;6.43;2.50;;;17.90;64.40;;;;;;5066898;28;20040;-83
2023/05/26 10:15:33;;;;;;;8.15;2.65;;;18.00;64.30;;;;;;5067240;28;20097;-83
2023/05/26 10:18:00;;;;;;;9.73;2.90;;;18.10;64.40;;;;;;5068888;28;20041;-83
2023/05/26 10:20:26;;;;;;;6.40;2.28;;;18.00;64.10;;;;;;5067961;28;20053;-84
2023/05/26 10:22:58;;;;;;;8.75;3.30;;;17.80;63.50;;;;;;5066452;28;20039;-83
2023/05/26 10:25:32;;;;;;;9.93;2.85;;;17.90;63.10;;;;;;5092344;28;20051;-87
2023/05/26 10:28:22;;;;;;;9.00;2.35;;;17.70;62.60;;;;;;5092932;28;20410;-83
2023/05/26 10:30:48;;;;;;;9.07;3.20;;;17.60;63.10;;;;;;5090056;28;20888;-84
2023/05/26 10:33:15;;;;;;;7.78;2.67;;;17.70;64.00;;;;;;5106014;28;20099;-85
2023/05/26 10:35:55;;;;;;;6.72;2.53;;;17.60;63.60;;;;;;5084680;28;20066;-85
2023/05/26 10:38:27;;;;;;;13.68;2.55;;;17.40;62.00;;;;;;5074214;28;20052;-84
2023/05/26 10:40:52;;;;;;;10.45;2.95;;;17.60;62.30;;;;;;5087095;28;20044;-84
2023/05/26 10:43:21;;;;;;;10.52;2.45;;;17.30;63.90;;;;;;5077519;28;20048;-84
2023/05/26 10:45:58;;;;;;;9.20;2.83;;;17.60;64.40;;;;;;5067040;28;20109;-84
2023/05/26 10:48:40;;;;;;;8.23;3.05;;;17.60;64.20;;;;;;5050275;28;20139;-84
2023/05/26 10:51:26;;;;;;;8.23;2.30;;;17.70;63.40;;;;;;5080918;28;20460;-83
2023/05/26 10:53:56;;;;;;;9.60;3.28;;;17.80;64.30;;;;;;5107197;28;20415;-84
2023/05/26 10:56:40;;;;;;;8.23;2.72;;;17.80;63.90;;;;;;5107861;28;20188;-84
2023/05/26 10:59:06;;;;;;;9.75;2.95;;;17.80;63.20;;;;;;5088123;28;20036;-85
2023/05/26 11:01:33;;;;;;;11.05;3.17;;;17.70;64.00;;;;;;5091897;28;20046;-84
2023/05/26 11:04:04;;;;;;;7.25;2.80;;;17.90;64.10;;;;;;5107016;28;20050;-84
2023/05/26 11:06:33;;;;;;;8.75;2.70;;;18.50;64.00;;;;;;5106496;28;20075;-86
2023/05/26 11:09:02;;;;;;;10.65;3.35;;;18.20;63.30;;;;;;5106975;28;20070;-85
2023/05/26 11:11:30;;;;;;;9.23;2.58;;;18.20;63.20;;;;;;5108395;28;20039;-81
2023/05/26 11:14:04;;;;;;;6.85;2.80;;;18.20;63.00;;;;;;5084675;28;20143;-82
2023/05/26 11:16:35;;;;;;;9.20;2.42;;;18.20;62.90;;;;;;5068340;28;20833;-82
2023/05/26 11:19:08;;;;;;;10.10;3.30;;;18.20;62.50;;;;;;5066734;28;20052;-82
2023/05/26 11:21:35;;;;;;;11.55;3.20;;;18.20;62.70;;;;;;5095015;28;20035;-82
2023/05/26 11:24:02;;;;;;;11.02;2.63;;;18.40;63.00;;;;;;5107314;28;20038;-81
2023/05/26 11:26:32;;;;;;;10.88;3.00;;;18.10;62.80;;;;;;5108750;28;20051;-82
2023/05/26 11:29:03;;;;;;;10.52;2.60;;;18.10;63.30;;;;;;5107019;28;20474;-80
2023/05/26 11:31:29;;;;;;;7.72;2.42;;;17.80;62.00;;;;;;5085230;28;20044;-82
2023/05/26 11:33:57;;;;;;;12.63;3.35;;;18.10;62.20;;;;;;5086291;28;20423;-82
2023/05/26 11:36:23;;;;;;;8.68;3.20;;;18.80;62.40;;;;;;5098293;28;20047;-84
2023/05/26 11:38:58;;;;;;;8.45;2.75;;;18.30;62.20;;;;;;5106562;28;20104;-83
2023/05/26 11:41:25;;;;;;;8.93;2.80;;;18.40;61.60;;;;;;5089242;28;20043;-83
2023/05/26 11:43:53;;;;;;;9.18;2.75;;;18.30;61.50;;;;;;5085037;28;20120;-84
2023/05/26 11:46:20;;;;;;;10.57;2.78;;;18.30;61.90;;;;;;5095133;28;20039;-83
2023/05/26 11:48:46;;;;;;;7.95;3.33;;;18.30;62.20;;;;;;5106386;28;20044;-83
2023/05/26 11:51:17;;;;;;;11.10;3.05;;;18.40;62.70;;;;;;5105596;28;20055;-84
2023/05/26 11:53:46;;;;;;;10.25;3.20;;;18.30;61.70;;;;;;5079639;28;20127;-84
2023/05/26 11:56:15;;;;;;;7.25;2.30;;;18.30;62.20;;;;;;5077819;28;20385;-82
2023/05/26 11:58:43;;;;;;;11.48;3.28;;;18.30;62.00;;;;;;5066976;28;20068;-83
2023/05/26 12:01:09;;;;;;;8.77;2.60;;;18.40;62.10;;;;;;5061479;28;20103;-82
2023/05/26 12:03:56;;;;;;;7.97;2.95;;;18.50;61.60;;;;;;5089593;28;20040;-83
2023/05/26 12:06:24;;;;;;;10.32;3.00;;;18.70;60.90;;;;;;5090412;28;20101;-82
2023/05/26 12:08:57;;;;;;;7.88;2.53;;;18.70;61.20;;;;;;5085302;28;20428;-83
2023/05/26 12:11:28;;;;;;;10.10;2.78;;;18.80;61.20;;;;;;5102092;28;20537;-84
2023/05/26 12:14:00;;;;;;;8.60;3.20;;;18.90;61.00;;;;;;5100772;28;20051;-83
2023/05/26 12:16:37;;;;;;;10.80;3.00;;;18.70;60.40;;;;;;5093175;28;20044;-84
2023/05/26 12:19:05;;;;;;;10.80;3.17;;;18.70;60.90;;;;;;5090637;28;20570;-83
2023/05/26 12:21:40;;;;;;;8.48;2.53;;;18.60;60.80;;;;;;5077026;28;20050;-84
2023/05/26 12:24:05;;;;;;;8.00;2.83;;;18.60;60.80;;;;;;5082900;28;20044;-84
2023/05/26 12:26:31;;;;;;;12.20;3.38;;;18.70;60.90;;;;;;5069623;28;20033;-83
2023/05/26 12:29:09;;;;;;;9.27;2.70;;;18.70;60.50;;;;;;5069595;28;20102;-84
2023/05/26 12:31:53;;;;;;;6.85;2.75;;;18.70;59.90;;;;;;5087846;28;20044;-83
2023/05/26 12:34:23;;;;;;;8.23;3.10;;;18.50;60.40;;;;;;5110025;28;20044;-85
2023/05/26 12:36:50;;;;;;;7.00;2.63;;;18.50;61.10;;;;;;5109273;28;20047;-84
2023/05/26 12:39:17;;;;;;;12.82;3.65;;;18.20;60.60;;;;;;5110044;28;20044;-84
2023/05/26 12:41:45;;;;;;;8.60;2.97;;;18.40;60.30;;;;;;5109706;28;20497;-85
2023/05/26 12:44:15;;;;;;;10.13;3.15;;;18.40;61.00;;;;;;5109953;28;20085;-84
2023/05/26 12:46:44;;;;;;;12.00;3.40;;;18.50;61.20;;;;;;5072205;28;20044;-85